createdAt,value
2022-11-19T00:01:42.421Z,15.73
2022-11-19T00:04:13.645Z,14.32
2022-11-19T00:06:45.340Z,13.55
2022-11-19T00:09:17.216Z,13.27
2022-11-19T00:12:00.675Z,14.05
2022-11-19T00:14:31.786Z,13.80
2022-11-19T00:17:06.044Z,13.27
2022-11-19T00:19:37.216Z,12.75
2022-11-19T00:22:08.451Z,12.70
2022-11-19T00:24:39.968Z,12.52
2022-11-19T00:27:11.197Z,12.80
2022-11-19T00:29:42.633Z,12.55
2022-11-19T00:32:16.711Z,13.18
2022-11-19T00:34:47.987Z,14.25
2022-11-19T00:37:19.221Z,16.95
2022-11-19T00:39:49.968Z,18.30
2022-11-19T00:42:20.654Z,15.05
2022-11-19T00:44:51.606Z,17.42
2022-11-19T00:47:25.522Z,15.93
2022-11-19T00:49:56.625Z,15.57
2022-11-19T00:52:28.127Z,15.30
2022-11-19T00:54:59.555Z,13.77
2022-11-19T00:57:30.732Z,12.85
2022-11-19T01:00:01.893Z,12.57
2022-11-19T01:02:35.748Z,12.77
2022-11-19T01:05:07.562Z,12.60
2022-11-19T01:07:38.774Z,11.38
2022-11-19T01:10:10.333Z,11.60
2022-11-19T01:13:01.900Z,11.60
2022-11-19T01:15:32.689Z,12.00
2022-11-19T01:18:06.796Z,10.85
2022-11-19T01:20:38.203Z,11.10
2022-11-19T01:23:09.739Z,11.02
2022-11-19T01:25:40.732Z,11.63
2022-11-19T01:28:11.696Z,12.23
2022-11-19T01:30:45.046Z,11.63
2022-11-19T01:33:19.648Z,11.55
2022-11-19T01:35:58.910Z,11.20
2022-11-19T01:38:30.910Z,10.52
2022-11-19T01:41:02.579Z,10.88
2022-11-19T01:43:46.598Z,10.98
2022-11-19T01:46:19.304Z,10.65
2022-11-19T01:48:57.438Z,11.57
2022-11-19T01:51:32.050Z,12.30
2022-11-19T01:54:07.788Z,10.88
2022-11-19T01:56:39.554Z,11.13
2022-11-19T01:59:15.177Z,10.90
2022-11-19T02:01:48.194Z,10.80
2022-11-19T02:04:24.290Z,11.65
2022-11-19T02:06:57.012Z,11.00
2022-11-19T02:09:29.523Z,11.02
2022-11-19T02:12:18.602Z,10.73
2022-11-19T02:15:16.936Z,11.02
2022-11-19T02:18:14.930Z,10.02
2022-11-19T02:21:06.295Z,10.90
2022-11-19T02:24:04.636Z,10.50
2022-11-19T02:27:14.494Z,9.95
2022-11-19T02:30:17.966Z,9.98
2022-11-19T02:33:08.546Z,10.52
2022-11-19T02:35:47.878Z,15.55
2022-11-19T02:38:27.044Z,13.23
2022-11-19T02:41:02.397Z,12.77
2022-11-19T02:43:39.585Z,11.50
2022-11-19T02:46:18.135Z,10.23
2022-11-19T02:48:54.490Z,11.63
2022-11-19T02:51:26.471Z,14.00
2022-11-19T02:53:57.498Z,12.32
2022-11-19T02:56:51.777Z,12.50
2022-11-19T02:59:39.088Z,16.48
2022-11-19T03:02:27.300Z,14.93
2022-11-19T03:04:59.470Z,12.63
2022-11-19T03:07:30.436Z,13.02
2022-11-19T03:10:06.731Z,10.95
2022-11-19T03:12:46.412Z,12.00
2022-11-19T03:15:43.509Z,10.18
2022-11-19T03:18:22.720Z,9.53
2022-11-19T03:20:59.322Z,8.77
2022-11-19T03:23:35.251Z,10.52
2022-11-19T03:26:13.944Z,10.27
2022-11-19T03:28:46.238Z,8.40
2022-11-19T03:31:18.974Z,8.23
2022-11-19T03:33:56.040Z,9.93
2022-11-19T03:36:34.277Z,9.20
2022-11-19T03:39:09.613Z,10.15
2022-11-19T03:41:43.959Z,8.85
2022-11-19T03:44:19.444Z,9.07
2022-11-19T03:46:54.447Z,7.28
2022-11-19T03:49:32.813Z,6.97
2022-11-19T03:52:07.547Z,8.18
2022-11-19T03:54:38.751Z,9.32
2022-11-19T03:57:11.345Z,8.10
2022-11-19T03:59:42.681Z,7.65
2022-11-19T04:02:15.106Z,6.70
2022-11-19T04:04:48.982Z,6.18
2022-11-19T04:07:22.217Z,6.78
2022-11-19T04:09:53.572Z,7.13
2022-11-19T04:12:26.684Z,7.00
2022-11-19T04:14:57.917Z,6.53
2022-11-19T04:17:28.666Z,6.63
2022-11-19T04:20:02.385Z,6.32
2022-11-19T04:22:33.260Z,6.45
2022-11-19T04:25:04.078Z,8.02
2022-11-19T04:27:35.143Z,6.97
2022-11-19T04:30:05.976Z,7.47
2022-11-19T04:32:36.782Z,7.10
2022-11-19T04:35:11.530Z,6.05
2022-11-19T04:37:43.265Z,5.95
2022-11-19T04:40:15.603Z,6.82
2022-11-19T04:42:47.000Z,5.90
2022-11-19T04:45:17.940Z,6.78
2022-11-19T04:47:49.145Z,6.65
2022-11-19T04:50:23.214Z,6.32
2022-11-19T04:52:54.076Z,5.97
2022-11-19T04:55:24.875Z,7.45
2022-11-19T04:57:56.627Z,7.00
2022-11-19T05:00:27.382Z,7.20
2022-11-19T05:02:58.543Z,6.35
2022-11-19T05:05:32.679Z,6.50
2022-11-19T05:08:04.243Z,7.20
2022-11-19T05:10:35.520Z,5.70
2022-11-19T05:13:06.821Z,6.03
2022-11-19T05:15:38.064Z,5.35
2022-11-19T05:18:09.479Z,6.32
2022-11-19T05:20:44.340Z,6.07
2022-11-19T05:23:15.653Z,28.48
2022-11-19T05:25:46.441Z,13.02
2022-11-19T05:28:17.457Z,8.45
2022-11-19T05:30:48.310Z,13.93
2022-11-19T05:33:19.159Z,15.45
2022-11-19T05:35:52.524Z,16.33
2022-11-19T05:38:23.693Z,14.27
2022-11-19T05:40:54.573Z,10.52
2022-11-19T05:43:25.343Z,8.90
2022-11-19T05:45:56.336Z,7.70
2022-11-19T05:48:27.300Z,8.45
2022-11-19T05:51:00.722Z,7.65
2022-11-19T05:53:31.464Z,7.32
2022-11-19T05:56:02.342Z,5.50
2022-11-19T05:58:33.832Z,6.47
2022-11-19T06:01:06.294Z,5.60
2022-11-19T06:03:37.731Z,6.47
2022-11-19T06:06:11.899Z,7.32
2022-11-19T06:08:42.721Z,6.47
2022-11-19T06:11:34.086Z,7.30
2022-11-19T06:14:06.092Z,6.80
2022-11-19T06:16:37.313Z,6.20
2022-11-19T06:19:08.203Z,6.18
2022-11-19T06:21:41.809Z,5.93
2022-11-19T06:24:13.472Z,6.00
2022-11-19T06:26:45.594Z,7.10
2022-11-19T06:29:17.872Z,7.60
2022-11-19T06:31:50.020Z,8.43
2022-11-19T06:34:21.329Z,7.70
2022-11-19T06:36:55.290Z,7.70
2022-11-19T06:39:26.381Z,7.20
2022-11-19T06:42:17.847Z,6.45
2022-11-19T06:44:49.107Z,5.85
2022-11-19T06:47:20.267Z,5.00
2022-11-19T06:49:51.149Z,5.05
2022-11-19T06:52:26.127Z,5.75
2022-11-19T06:54:57.538Z,5.72
2022-11-19T06:57:29.539Z,5.75
2022-11-19T07:00:01.976Z,7.57
2022-11-19T07:02:33.681Z,7.15
2022-11-19T07:05:07.684Z,6.80
2022-11-19T07:07:41.734Z,7.18
2022-11-19T07:10:13.755Z,7.82
2022-11-19T07:12:45.565Z,7.28
2022-11-19T07:15:17.519Z,7.97
2022-11-19T07:17:50.076Z,6.90
2022-11-19T07:20:22.168Z,7.10
2022-11-19T07:22:59.408Z,6.72
2022-11-19T07:25:31.532Z,5.72
2022-11-19T07:28:03.423Z,6.25
2022-11-19T07:30:35.189Z,7.25
2022-11-19T07:33:06.454Z,6.88
2022-11-19T07:35:37.504Z,6.60
2022-11-19T07:38:12.427Z,6.60
2022-11-19T07:40:45.325Z,6.90
2022-11-19T07:43:14.518Z,7.22
2022-11-19T07:45:45.984Z,8.20
2022-11-19T07:48:17.493Z,10.07
2022-11-19T07:50:56.619Z,7.57
2022-11-19T07:53:30.847Z,7.60
2022-11-19T07:56:04.555Z,9.88
2022-11-19T07:58:35.879Z,8.43
2022-11-19T08:01:12.517Z,9.02
2022-11-19T08:03:45.624Z,7.88
2022-11-19T08:06:17.572Z,14.90
2022-11-19T08:08:52.021Z,15.35
2022-11-19T08:11:24.327Z,13.80
2022-11-19T08:13:56.229Z,16.70
2022-11-19T08:16:39.466Z,7.95
2022-11-19T08:19:12.474Z,16.48
2022-11-19T08:21:45.764Z,14.27
2022-11-19T08:24:23.569Z,12.73
2022-11-19T08:26:55.367Z,9.15
2022-11-19T08:29:27.343Z,8.75
2022-11-19T08:31:59.308Z,7.95
2022-11-19T08:34:32.440Z,7.60
2022-11-19T08:37:04.168Z,10.38
2022-11-19T08:39:38.656Z,16.00
2022-11-19T08:42:22.532Z,15.25
2022-11-19T08:44:55.385Z,11.48
2022-11-19T08:47:27.109Z,8.85
2022-11-19T08:49:58.732Z,9.07
2022-11-19T08:52:29.836Z,11.77
2022-11-19T08:55:03.999Z,6.63
2022-11-19T08:57:35.314Z,7.15
2022-11-19T09:00:07.394Z,8.40
2022-11-19T09:02:39.143Z,5.47
2022-11-19T09:05:14.699Z,7.88
2022-11-19T09:07:46.394Z,7.63
2022-11-19T09:10:21.492Z,6.50
2022-11-19T09:12:53.342Z,10.65
2022-11-19T09:15:24.785Z,7.60
2022-11-19T09:17:56.092Z,6.40
2022-11-19T09:20:27.303Z,5.65
2022-11-19T09:22:58.418Z,7.63
2022-11-19T09:25:34.126Z,9.07
2022-11-19T09:28:06.207Z,6.93
2022-11-19T09:30:37.731Z,9.88
2022-11-19T09:33:10.171Z,6.30
2022-11-19T09:35:41.624Z,6.97
2022-11-19T09:38:13.516Z,9.10
2022-11-19T09:40:53.815Z,5.38
2022-11-19T09:43:36.373Z,6.50
2022-11-19T09:46:13.681Z,5.22
2022-11-19T09:48:45.954Z,4.53
2022-11-19T09:51:20.337Z,3.92
2022-11-19T09:53:55.739Z,5.35
2022-11-19T09:56:34.749Z,7.53
2022-11-19T09:59:10.151Z,6.80
2022-11-19T10:01:41.478Z,5.53
2022-11-19T10:04:15.781Z,4.70
2022-11-19T10:06:55.320Z,5.28
2022-11-19T10:09:55.534Z,5.13
2022-11-19T10:12:48.294Z,6.18
2022-11-19T10:15:27.446Z,7.32
2022-11-19T10:18:08.390Z,6.18
2022-11-19T10:20:57.754Z,5.05
2022-11-19T10:23:41.828Z,4.28
2022-11-19T10:26:17.776Z,13.48
2022-11-19T10:28:59.016Z,7.75
2022-11-19T10:31:38.167Z,4.93
2022-11-19T10:34:17.173Z,5.00
2022-11-19T10:36:51.504Z,6.13
2022-11-19T10:39:26.256Z,7.85
2022-11-19T10:42:01.467Z,6.85
2022-11-19T10:44:43.471Z,5.05
2022-11-19T10:47:21.262Z,5.78
2022-11-19T10:50:10.951Z,5.65
2022-11-19T10:52:46.277Z,4.15
2022-11-19T10:55:22.712Z,7.60
2022-11-19T10:57:56.892Z,6.18
2022-11-19T11:00:31.213Z,4.15
2022-11-19T11:03:05.771Z,4.22
2022-11-19T11:05:58.373Z,6.18
2022-11-19T11:08:29.365Z,4.43
2022-11-19T11:11:01.012Z,4.97
2022-11-19T11:13:54.110Z,5.10
2022-11-19T11:16:36.633Z,4.35
2022-11-19T11:19:18.924Z,5.32
2022-11-19T11:21:54.396Z,6.82
2022-11-19T11:24:33.490Z,7.40
2022-11-19T11:27:23.840Z,5.00
2022-11-19T11:30:09.275Z,4.03
2022-11-19T11:32:44.446Z,3.25
2022-11-19T11:35:35.972Z,2.75
2022-11-19T11:38:08.653Z,3.63
2022-11-19T11:40:40.472Z,2.38
2022-11-19T11:43:20.225Z,2.15
2022-11-19T11:45:58.142Z,2.75
2022-11-19T11:48:38.300Z,3.00
2022-11-19T11:51:09.854Z,1.75
2022-11-19T11:53:43.174Z,1.85
2022-11-19T11:56:14.399Z,2.63
2022-11-19T11:58:45.542Z,1.88
2022-11-19T12:01:19.129Z,2.13
2022-11-19T12:04:02.920Z,2.47
2022-11-19T12:06:41.262Z,2.45
2022-11-19T12:09:22.469Z,2.50
2022-11-19T12:11:59.149Z,2.80
2022-11-19T12:14:33.500Z,3.50
2022-11-19T12:17:22.132Z,1.73
2022-11-19T12:20:21.175Z,2.42
2022-11-19T12:23:15.665Z,3.90
2022-11-19T12:25:57.305Z,2.13
2022-11-19T12:28:44.074Z,3.05
2022-11-19T12:31:30.227Z,2.78
2022-11-19T12:34:25.973Z,2.40
2022-11-19T12:37:06.323Z,3.05
2022-11-19T12:39:49.115Z,1.80
2022-11-19T12:42:37.111Z,1.90
2022-11-19T12:45:18.679Z,2.72
2022-11-19T12:48:08.004Z,2.10
2022-11-19T12:50:49.034Z,1.83
2022-11-19T12:53:42.841Z,1.52
2022-11-19T12:56:26.267Z,1.08
2022-11-19T12:59:06.385Z,1.30
2022-11-19T13:01:42.982Z,1.70
2022-11-19T13:04:18.472Z,2.08
2022-11-19T13:06:54.397Z,0.80
2022-11-19T13:09:37.220Z,0.75
2022-11-19T13:12:11.355Z,1.40
2022-11-19T13:14:44.533Z,0.52
2022-11-19T13:17:22.243Z,0.50
2022-11-19T13:19:59.226Z,0.85
2022-11-19T13:25:10.605Z,0.90
2022-11-19T13:27:43.060Z,1.20
2022-11-19T13:30:21.447Z,0.73
2022-11-19T13:33:02.676Z,0.60
2022-11-19T13:35:40.570Z,1.75
2022-11-19T13:38:17.584Z,1.08
2022-11-19T13:40:55.608Z,2.42
2022-11-19T13:43:39.257Z,2.30
2022-11-19T13:46:21.406Z,1.05
2022-11-19T13:48:59.750Z,1.10
2022-11-19T13:51:35.240Z,2.78
2022-11-19T13:54:07.943Z,2.13
2022-11-19T13:56:47.349Z,3.13
2022-11-19T13:59:38.018Z,1.23
2022-11-19T14:02:30.667Z,2.00
2022-11-19T14:05:20.678Z,1.08
2022-11-19T14:08:10.768Z,2.05
2022-11-19T14:10:47.560Z,1.40
2022-11-19T14:13:45.438Z,2.80
2022-11-19T14:16:39.797Z,2.72
2022-11-19T14:19:29.727Z,1.27
2022-11-19T14:22:16.054Z,1.20
2022-11-19T14:25:13.430Z,2.03
2022-11-19T14:27:45.462Z,3.80
2022-11-19T14:30:24.401Z,3.40
2022-11-19T14:32:56.384Z,4.68
2022-11-19T14:35:38.963Z,1.70
2022-11-19T14:38:37.445Z,1.42
2022-11-19T14:41:33.408Z,2.20
2022-11-19T14:44:14.890Z,5.00
2022-11-19T14:46:53.422Z,4.63
2022-11-19T14:49:39.138Z,4.10
2022-11-19T14:52:24.039Z,4.22
2022-11-19T14:54:58.551Z,2.58
2022-11-19T14:57:34.275Z,1.27
2022-11-19T15:00:08.159Z,1.33
2022-11-19T15:02:46.662Z,1.92
2022-11-19T15:05:22.433Z,1.35
2022-11-19T15:07:56.600Z,1.60
2022-11-19T15:10:37.089Z,2.60
2022-11-19T15:13:25.211Z,2.72
2022-11-19T15:16:10.019Z,1.10
2022-11-19T15:19:09.129Z,2.97
2022-11-19T15:22:12.625Z,4.18
2022-11-19T15:25:05.306Z,4.38
2022-11-19T15:27:52.675Z,2.50
2022-11-19T15:30:25.200Z,2.55
2022-11-19T15:33:14.970Z,2.25
2022-11-19T15:36:22.233Z,2.13
2022-11-19T15:39:03.560Z,2.85
2022-11-19T15:41:41.580Z,2.08
2022-11-19T15:44:22.041Z,2.13
2022-11-19T15:47:00.425Z,1.90
2022-11-19T15:49:33.597Z,2.42
2022-11-19T15:52:17.966Z,6.75
2022-11-19T15:54:51.964Z,6.15
2022-11-19T15:57:26.639Z,4.53
2022-11-19T16:00:05.251Z,5.20
2022-11-19T16:02:44.496Z,4.78
2022-11-19T16:07:54.663Z,3.47
2022-11-19T16:10:34.822Z,2.95
2022-11-19T16:13:35.018Z,2.20
2022-11-19T16:16:18.424Z,2.45
2022-11-19T16:18:50.630Z,3.50
2022-11-19T16:21:26.296Z,3.95
2022-11-19T16:24:10.517Z,4.60
2022-11-19T16:26:46.621Z,4.72
2022-11-19T16:29:21.135Z,6.47
2022-11-19T16:31:53.643Z,5.03
2022-11-19T16:34:27.115Z,4.75
2022-11-19T16:36:59.017Z,5.15
2022-11-19T16:39:32.740Z,3.90
2022-11-19T16:42:19.909Z,4.93
2022-11-19T16:44:54.467Z,4.85
2022-11-19T16:47:37.941Z,4.35
2022-11-19T16:50:27.236Z,3.75
2022-11-19T16:52:59.346Z,4.78
2022-11-19T16:55:52.883Z,4.30
2022-11-19T16:58:30.076Z,5.07
2022-11-19T17:03:39.995Z,5.30
2022-11-19T17:06:24.258Z,6.50
2022-11-19T17:09:00.691Z,7.47
2022-11-19T17:11:56.720Z,7.65
2022-11-19T17:14:55.950Z,9.45
2022-11-19T17:17:42.846Z,10.52
2022-11-19T17:20:43.551Z,9.00
2022-11-19T17:23:18.963Z,8.38
2022-11-19T17:25:51.662Z,7.03
2022-11-19T17:28:25.253Z,7.28
2022-11-19T17:30:59.892Z,6.78
2022-11-19T17:33:35.461Z,7.47
2022-11-19T17:38:39.441Z,9.63
2022-11-19T17:41:12.592Z,11.00
2022-11-19T17:43:56.329Z,11.52
2022-11-19T17:46:32.010Z,15.38
2022-11-19T17:49:02.953Z,18.08
2022-11-19T17:51:37.495Z,15.93
2022-11-19T17:54:12.671Z,14.88
2022-11-19T17:56:43.978Z,18.70
2022-11-19T17:59:15.403Z,26.63
2022-11-19T18:01:48.974Z,25.60
2022-11-19T18:04:20.201Z,25.00
2022-11-19T18:06:51.422Z,24.33
2022-11-19T18:09:22.971Z,24.60
2022-11-19T18:11:54.287Z,24.17
2022-11-19T18:14:26.054Z,25.25
2022-11-19T18:16:59.721Z,28.10
2022-11-19T18:19:32.644Z,26.08
2022-11-19T18:22:03.988Z,28.42
2022-11-19T18:24:35.302Z,28.55
2022-11-19T18:27:06.254Z,30.05
2022-11-19T18:29:37.523Z,32.13
2022-11-19T18:32:16.306Z,32.72
2022-11-19T18:34:48.039Z,32.72
2022-11-19T18:37:19.607Z,31.55
2022-11-19T18:39:52.966Z,31.85
2022-11-19T18:42:24.321Z,31.38
2022-11-19T18:44:52.708Z,24.08
2022-11-19T18:47:26.938Z,24.30
2022-11-19T18:49:58.190Z,24.67
2022-11-19T18:52:29.252Z,24.60
2022-11-19T18:55:00.216Z,24.25
2022-11-19T18:57:30.979Z,25.63
2022-11-19T19:00:02.089Z,27.25
2022-11-19T19:02:36.167Z,24.38
2022-11-19T19:05:07.457Z,23.75
2022-11-19T19:07:38.614Z,22.75
2022-11-19T19:10:11.397Z,22.70
2022-11-19T19:12:39.444Z,23.20
2022-11-19T19:15:11.431Z,22.80
2022-11-19T19:17:45.497Z,23.52
2022-11-19T19:20:17.443Z,22.35
2022-11-19T19:22:48.796Z,21.90
2022-11-19T19:25:19.750Z,22.58
2022-11-19T19:27:51.427Z,21.52
2022-11-19T19:30:22.523Z,20.70
2022-11-19T19:32:56.404Z,19.95
2022-11-19T19:35:27.359Z,20.45
2022-11-19T19:37:58.606Z,21.40
2022-11-19T19:40:29.798Z,22.02
2022-11-19T19:43:03.370Z,24.23
2022-11-19T19:45:36.137Z,26.27
2022-11-19T19:48:10.587Z,25.27
2022-11-19T19:50:41.860Z,25.13
2022-11-19T19:53:13.733Z,23.83
2022-11-19T19:55:44.868Z,25.65
2022-11-19T19:58:15.980Z,24.92
2022-11-19T20:00:47.139Z,25.08
2022-11-19T20:03:21.245Z,23.98
2022-11-19T20:05:53.014Z,23.40
2022-11-19T20:08:24.165Z,22.67
2022-11-19T20:10:55.966Z,19.15
2022-11-19T20:13:33.414Z,19.02
2022-11-19T20:16:14.709Z,18.67
2022-11-19T20:18:53.838Z,19.70
2022-11-19T20:21:27.459Z,16.90
2022-11-19T20:24:00.998Z,17.45
2022-11-19T20:26:34.060Z,17.17
2022-11-19T20:29:07.054Z,18.33
2022-11-19T20:31:38.592Z,17.48
2022-11-19T20:34:13.229Z,17.52
2022-11-19T20:36:44.380Z,17.92
2022-11-19T20:39:16.291Z,18.95
2022-11-19T20:42:00.421Z,19.80
2022-11-19T20:44:31.624Z,20.30
2022-11-19T20:47:04.201Z,22.38
2022-11-19T20:49:40.282Z,21.55
2022-11-19T20:52:11.907Z,20.75
2022-11-19T20:54:43.990Z,20.95
2022-11-19T20:57:14.775Z,22.17
2022-11-19T20:59:45.637Z,23.13
2022-11-19T21:02:16.880Z,23.05
2022-11-19T21:04:51.442Z,22.90
2022-11-19T21:07:22.737Z,24.38
2022-11-19T21:09:54.030Z,23.92
2022-11-19T21:12:25.487Z,24.02
2022-11-19T21:14:56.491Z,24.27
2022-11-19T21:17:27.498Z,24.65
2022-11-19T21:20:01.214Z,23.85
2022-11-19T21:22:32.689Z,23.20
2022-11-19T21:25:04.048Z,23.55
2022-11-19T21:27:37.495Z,22.60
2022-11-19T21:30:10.424Z,24.05
2022-11-19T21:32:41.791Z,22.92
2022-11-19T21:35:15.467Z,23.60
2022-11-19T21:37:46.403Z,21.85
2022-11-19T21:40:18.337Z,22.63
2022-11-19T21:42:49.543Z,22.80
2022-11-19T21:45:20.440Z,21.42
2022-11-19T21:47:51.258Z,21.88
2022-11-19T21:50:24.720Z,20.08
2022-11-19T21:52:55.549Z,18.90
2022-11-19T21:55:26.508Z,17.58
2022-11-19T21:57:57.359Z,19.08
2022-11-19T22:00:28.851Z,17.92
2022-11-19T22:03:00.017Z,17.48
2022-11-19T22:05:33.793Z,18.30
2022-11-19T22:08:05.310Z,17.95
2022-11-19T22:10:37.541Z,17.75
2022-11-19T22:13:10.557Z,15.68
2022-11-19T22:15:42.097Z,16.42
2022-11-19T22:18:13.822Z,16.00
2022-11-19T22:20:48.031Z,17.15
2022-11-19T22:23:24.090Z,18.10
2022-11-19T22:25:55.943Z,15.93
2022-11-19T22:28:27.265Z,15.68
2022-11-19T22:30:59.743Z,15.38
2022-11-19T22:33:33.329Z,16.60
2022-11-19T22:36:10.309Z,15.07
2022-11-19T22:38:42.305Z,16.13
2022-11-19T22:41:15.598Z,18.92
2022-11-19T22:43:47.497Z,18.75
2022-11-19T22:46:18.724Z,23.98
2022-11-19T22:48:50.312Z,24.38
2022-11-19T22:51:25.116Z,26.48
2022-11-19T22:53:57.030Z,23.77
2022-11-19T22:56:29.689Z,24.55
2022-11-19T22:59:01.792Z,22.05
2022-11-19T23:01:34.376Z,20.00
2022-11-19T23:04:07.804Z,19.27
2022-11-19T23:06:41.437Z,21.33
2022-11-19T23:09:12.729Z,21.25
2022-11-19T23:11:55.827Z,24.60
2022-11-19T23:14:27.484Z,22.48
2022-11-19T23:16:58.510Z,20.52
2022-11-19T23:19:29.551Z,20.65
2022-11-19T23:22:03.131Z,18.98
2022-11-19T23:24:34.374Z,19.05
2022-11-19T23:27:05.271Z,16.35
2022-11-19T23:29:37.660Z,16.17
2022-11-19T23:32:08.786Z,14.90
2022-11-19T23:34:39.990Z,13.25
2022-11-19T23:37:13.839Z,10.32
2022-11-19T23:39:44.776Z,9.15
2022-11-19T23:42:15.862Z,9.05
2022-11-19T23:44:46.669Z,8.00
2022-11-19T23:47:17.703Z,7.28
2022-11-19T23:49:48.516Z,7.03
2022-11-19T23:52:21.900Z,7.95
2022-11-19T23:54:52.656Z,8.02
2022-11-19T23:57:23.475Z,7.65
2022-11-19T23:59:54.357Z,7.63
